Terminal Aerodrome Forecast
Issued by NWS

Home | Current Version | Previous Version | Text Only | Print | Product List | Glossary On
Versions: 1 2 3 4 5 6 7 8 9 10 11 12 13 14 15 16 17 18 19 20 21 22 23
000
FTAK31 PAFA 242339
TAFAQT
TAF
PAQT 242339Z 2500/2524 08012KT P6SM VCFG SCT007 SCT015
     FM250600 08012KT 6SM BR SCT007 OVC015
     FM250900 08012KT 4SM BR BKN007 OVC015
     FM251200 10008G14KT 2SM -SN BR SCT003 OVC007
     FM251500 23014G22KT 1SM -SN BR SCT003 OVC007=

USA.gov is the U.S. government's official web portal to all federal, state and local government web resources and services.